sensor_id;sensor_type;location;lat;lon;timestamp;pressure;altitude;pressure_sealevel;temperature;humidity
11971;BME280;6045;42.682;23.294;2022-10-31T00:00:09;95087.81;;;16.13;51.25
11971;BME280;6045;42.682;23.294;2022-10-31T00:02:37;95085.31;;;16.07;51.55
11971;BME280;6045;42.682;23.294;2022-10-31T00:05:04;95090.97;;;16.05;51.71
11971;BME280;6045;42.682;23.294;2022-10-31T00:07:31;95083.16;;;16.04;52.37
11971;BME280;6045;42.682;23.294;2022-10-31T00:09:58;95083.84;;;15.94;52.22
11971;BME280;6045;42.682;23.294;2022-10-31T00:12:25;95088.16;;;15.95;52.17
11971;BME280;6045;42.682;23.294;2022-10-31T00:14:52;95088.66;;;15.92;52.01
11971;BME280;6045;42.682;23.294;2022-10-31T00:17:20;95074.81;;;15.84;52.46
11971;BME280;6045;42.682;23.294;2022-10-31T00:19:47;95087.41;;;15.78;52.84
11971;BME280;6045;42.682;23.294;2022-10-31T00:22:14;95087.09;;;15.74;53.55
11971;BME280;6045;42.682;23.294;2022-10-31T00:24:41;95089.03;;;15.79;53.23
11971;BME280;6045;42.682;23.294;2022-10-31T00:27:08;95079.16;;;15.85;53.58
11971;BME280;6045;42.682;23.294;2022-10-31T00:29:34;95075.13;;;15.87;53.14
11971;BME280;6045;42.682;23.294;2022-10-31T00:32:01;95083.47;;;15.86;52.77
11971;BME280;6045;42.682;23.294;2022-10-31T00:34:31;95084.78;;;15.83;54.39
11971;BME280;6045;42.682;23.294;2022-10-31T00:36:57;95084.69;;;15.78;53.36
11971;BME280;6045;42.682;23.294;2022-10-31T00:39:24;95070.72;;;15.81;53.48
11971;BME280;6045;42.682;23.294;2022-10-31T00:41:51;95069.13;;;15.80;53.42
11971;BME280;6045;42.682;23.294;2022-10-31T00:44:18;95076.00;;;15.71;53.61
11971;BME280;6045;42.682;23.294;2022-10-31T00:46:44;95076.69;;;15.61;53.69
11971;BME280;6045;42.682;23.294;2022-10-31T00:49:11;95073.19;;;15.61;53.80
11971;BME280;6045;42.682;23.294;2022-10-31T00:51:39;95068.28;;;15.58;54.32
11971;BME280;6045;42.682;23.294;2022-10-31T00:54:06;95076.09;;;15.59;54.45
11971;BME280;6045;42.682;23.294;2022-10-31T00:56:33;95078.56;;;15.61;55.29
11971;BME280;6045;42.682;23.294;2022-10-31T00:59:00;95074.88;;;15.67;54.25
11971;BME280;6045;42.682;23.294;2022-10-31T01:01:27;95078.13;;;15.69;54.52
11971;BME280;6045;42.682;23.294;2022-10-31T01:03:53;95079.00;;;15.74;54.70
11971;BME280;6045;42.682;23.294;2022-10-31T01:06:20;95081.03;;;15.84;54.34
11971;BME280;6045;42.682;23.294;2022-10-31T01:08:48;95069.75;;;15.87;53.91
11971;BME280;6045;42.682;23.294;2022-10-31T01:11:18;95085.84;;;15.82;53.85
11971;BME280;6045;42.682;23.294;2022-10-31T01:13:46;95081.03;;;15.84;55.28
11971;BME280;6045;42.682;23.294;2022-10-31T01:16:16;95090.50;;;15.87;54.92
11971;BME280;6045;42.682;23.294;2022-10-31T01:18:44;95077.56;;;15.89;54.49
11971;BME280;6045;42.682;23.294;2022-10-31T01:21:13;95081.31;;;15.88;54.85
11971;BME280;6045;42.682;23.294;2022-10-31T01:23:41;95097.56;;;15.93;54.30
11971;BME280;6045;42.682;23.294;2022-10-31T01:26:13;95082.16;;;15.88;54.05
11971;BME280;6045;42.682;23.294;2022-10-31T01:28:45;95086.22;;;15.91;54.74
11971;BME280;6045;42.682;23.294;2022-10-31T01:31:12;95090.97;;;15.84;54.14
11971;BME280;6045;42.682;23.294;2022-10-31T01:33:39;95092.00;;;15.78;55.03
11971;BME280;6045;42.682;23.294;2022-10-31T01:36:14;95096.31;;;15.79;55.22
11971;BME280;6045;42.682;23.294;2022-10-31T01:38:42;95093.13;;;15.82;55.70
11971;BME280;6045;42.682;23.294;2022-10-31T01:41:11;95083.25;;;15.92;55.06
11971;BME280;6045;42.682;23.294;2022-10-31T01:43:45;95090.97;;;16.05;54.75
11971;BME280;6045;42.682;23.294;2022-10-31T01:46:13;95104.59;;;16.15;54.33
11971;BME280;6045;42.682;23.294;2022-10-31T01:48:48;95086.88;;;16.24;54.53
11971;BME280;6045;42.682;23.294;2022-10-31T01:51:25;95092.59;;;16.28;54.41
11971;BME280;6045;42.682;23.294;2022-10-31T01:53:56;95096.44;;;16.37;54.50
11971;BME280;6045;42.682;23.294;2022-10-31T01:56:28;95100.34;;;16.46;54.93
11971;BME280;6045;42.682;23.294;2022-10-31T01:59:01;95095.00;;;16.51;54.71
11971;BME280;6045;42.682;23.294;2022-10-31T02:01:29;95093.38;;;16.50;54.46
11971;BME280;6045;42.682;23.294;2022-10-31T02:03:56;95086.97;;;16.56;55.29
11971;BME280;6045;42.682;23.294;2022-10-31T02:06:29;95082.91;;;16.54;54.68
11971;BME280;6045;42.682;23.294;2022-10-31T02:12:27;95088.75;;;16.46;55.54
11971;BME280;6045;42.682;23.294;2022-10-31T02:25:54;95091.25;;;16.30;56.43
11971;BME280;6045;42.682;23.294;2022-10-31T02:28:43;95104.53;;;16.32;56.01
11971;BME280;6045;42.682;23.294;2022-10-31T02:31:27;95097.84;;;16.39;56.43
11971;BME280;6045;42.682;23.294;2022-10-31T02:33:59;95095.75;;;16.47;56.62
11971;BME280;6045;42.682;23.294;2022-10-31T02:36:35;95093.88;;;16.47;55.93
11971;BME280;6045;42.682;23.294;2022-10-31T02:39:11;95106.63;;;16.52;56.12
11971;BME280;6045;42.682;23.294;2022-10-31T02:41:46;95104.81;;;16.57;55.53
11971;BME280;6045;42.682;23.294;2022-10-31T02:44:21;95108.38;;;16.63;55.83
11971;BME280;6045;42.682;23.294;2022-10-31T02:46:53;95111.38;;;16.66;56.29
11971;BME280;6045;42.682;23.294;2022-10-31T02:49:29;95113.81;;;16.68;55.60
11971;BME280;6045;42.682;23.294;2022-10-31T02:51:59;95109.28;;;16.73;55.44
11971;BME280;6045;42.682;23.294;2022-10-31T02:54:27;95113.34;;;16.76;55.32
11971;BME280;6045;42.682;23.294;2022-10-31T02:56:57;95119.56;;;16.76;55.30
11971;BME280;6045;42.682;23.294;2022-10-31T02:59:26;95118.75;;;16.76;55.00
11971;BME280;6045;42.682;23.294;2022-10-31T03:02:12;95117.16;;;16.80;55.31
11971;BME280;6045;42.682;23.294;2022-10-31T03:07:53;95121.22;;;16.82;55.53
11971;BME280;6045;42.682;23.294;2022-10-31T03:10:31;95125.53;;;16.78;55.80
11971;BME280;6045;42.682;23.294;2022-10-31T03:13:06;95126.63;;;16.82;55.22
11971;BME280;6045;42.682;23.294;2022-10-31T03:15:38;95126.41;;;16.84;55.60
11971;BME280;6045;42.682;23.294;2022-10-31T03:18:11;95122.06;;;16.83;56.10
11971;BME280;6045;42.682;23.294;2022-10-31T03:20:41;95120.41;;;16.77;55.30
11971;BME280;6045;42.682;23.294;2022-10-31T03:23:12;95120.91;;;16.74;56.12
11971;BME280;6045;42.682;23.294;2022-10-31T03:25:40;95124.38;;;16.69;56.15
11971;BME280;6045;42.682;23.294;2022-10-31T03:28:10;95121.88;;;16.63;55.95
11971;BME280;6045;42.682;23.294;2022-10-31T03:30:43;95128.59;;;16.60;56.78
11971;BME280;6045;42.682;23.294;2022-10-31T03:33:15;95136.09;;;16.58;56.21
11971;BME280;6045;42.682;23.294;2022-10-31T03:35:45;95126.66;;;16.56;56.44
11971;BME280;6045;42.682;23.294;2022-10-31T03:38:14;95131.75;;;16.52;56.38
11971;BME280;6045;42.682;23.294;2022-10-31T03:40:43;95138.91;;;16.47;56.58
11971;BME280;6045;42.682;23.294;2022-10-31T03:43:15;95141.31;;;16.43;56.39
11971;BME280;6045;42.682;23.294;2022-10-31T03:45:45;95147.78;;;16.42;56.82
11971;BME280;6045;42.682;23.294;2022-10-31T03:48:16;95147.47;;;16.38;56.65
11971;BME280;6045;42.682;23.294;2022-10-31T03:50:51;95149.28;;;16.33;56.93
11971;BME280;6045;42.682;23.294;2022-10-31T03:53:25;95154.88;;;16.26;57.87
11971;BME280;6045;42.682;23.294;2022-10-31T03:55:59;95153.69;;;16.17;57.08
11971;BME280;6045;42.682;23.294;2022-10-31T03:58:30;95152.75;;;16.07;57.32
11971;BME280;6045;42.682;23.294;2022-10-31T04:01:04;95159.91;;;15.96;57.69
11971;BME280;6045;42.682;23.294;2022-10-31T04:03:35;95158.19;;;15.90;58.73
11971;BME280;6045;42.682;23.294;2022-10-31T04:06:06;95164.31;;;15.86;58.98
11971;BME280;6045;42.682;23.294;2022-10-31T04:08:40;95166.16;;;15.80;57.92
11971;BME280;6045;42.682;23.294;2022-10-31T04:11:09;95162.81;;;15.73;58.26
11971;BME280;6045;42.682;23.294;2022-10-31T04:13:39;95166.97;;;15.64;59.53
11971;BME280;6045;42.682;23.294;2022-10-31T04:16:07;95170.69;;;15.58;58.78
11971;BME280;6045;42.682;23.294;2022-10-31T04:18:36;95169.28;;;15.55;59.03
11971;BME280;6045;42.682;23.294;2022-10-31T04:21:05;95171.41;;;15.53;59.28
11971;BME280;6045;42.682;23.294;2022-10-31T04:23:33;95170.28;;;15.49;58.95
11971;BME280;6045;42.682;23.294;2022-10-31T04:26:00;95167.81;;;15.48;59.83
11971;BME280;6045;42.682;23.294;2022-10-31T04:28:33;95167.81;;;15.48;60.48
11971;BME280;6045;42.682;23.294;2022-10-31T04:31:00;95168.16;;;15.51;61.01
11971;BME280;6045;42.682;23.294;2022-10-31T04:33:27;95172.72;;;15.51;60.56
11971;BME280;6045;42.682;23.294;2022-10-31T04:35:55;95169.84;;;15.41;61.22
11971;BME280;6045;42.682;23.294;2022-10-31T04:38:22;95169.13;;;15.45;60.99
11971;BME280;6045;42.682;23.294;2022-10-31T04:41:21;95174.38;;;15.52;61.61
11971;BME280;6045;42.682;23.294;2022-10-31T04:43:48;95170.13;;;15.56;61.61
11971;BME280;6045;42.682;23.294;2022-10-31T04:46:15;95170.94;;;15.56;61.50
11971;BME280;6045;42.682;23.294;2022-10-31T04:48:41;95168.31;;;15.61;61.38
11971;BME280;6045;42.682;23.294;2022-10-31T04:51:10;95176.16;;;15.63;60.37
11971;BME280;6045;42.682;23.294;2022-10-31T04:53:37;95170.25;;;15.83;72.84
11971;BME280;6045;42.682;23.294;2022-10-31T04:56:05;95170.25;;;16.26;71.37
11971;BME280;6045;42.682;23.294;2022-10-31T04:58:31;95175.53;;;16.59;66.22
11971;BME280;6045;42.682;23.294;2022-10-31T05:00:58;95176.22;;;16.98;63.11
11971;BME280;6045;42.682;23.294;2022-10-31T05:03:25;95180.38;;;17.42;62.02
11971;BME280;6045;42.682;23.294;2022-10-31T05:05:51;95193.06;;;17.73;58.64
11971;BME280;6045;42.682;23.294;2022-10-31T05:08:20;95187.84;;;17.99;55.97
11971;BME280;6045;42.682;23.294;2022-10-31T05:10:46;95192.22;;;18.10;56.95
11971;BME280;6045;42.682;23.294;2022-10-31T05:13:13;95191.22;;;18.26;56.63
11971;BME280;6045;42.682;23.294;2022-10-31T05:15:41;95201.56;;;18.34;55.20
11971;BME280;6045;42.682;23.294;2022-10-31T05:18:07;95203.75;;;18.37;55.50
11971;BME280;6045;42.682;23.294;2022-10-31T05:20:34;95197.38;;;18.58;56.05
11971;BME280;6045;42.682;23.294;2022-10-31T05:23:01;95194.72;;;18.78;55.89
11971;BME280;6045;42.682;23.294;2022-10-31T05:25:29;95202.78;;;18.63;56.70
11971;BME280;6045;42.682;23.294;2022-10-31T05:27:56;95205.19;;;18.55;55.53
11971;BME280;6045;42.682;23.294;2022-10-31T05:30:26;95203.19;;;18.40;58.26
11971;BME280;6045;42.682;23.294;2022-10-31T05:32:54;95207.88;;;18.50;59.32
11971;BME280;6045;42.682;23.294;2022-10-31T05:35:22;95206.88;;;18.71;61.98
11971;BME280;6045;42.682;23.294;2022-10-31T05:37:49;95222.63;;;18.89;59.10
11971;BME280;6045;42.682;23.294;2022-10-31T05:40:17;95226.19;;;18.99;57.39
11971;BME280;6045;42.682;23.294;2022-10-31T05:42:46;95218.59;;;18.96;56.04
11971;BME280;6045;42.682;23.294;2022-10-31T05:45:15;95224.50;;;18.78;56.47
11971;BME280;6045;42.682;23.294;2022-10-31T05:47:42;95222.25;;;18.55;57.72
11971;BME280;6045;42.682;23.294;2022-10-31T05:50:09;95219.47;;;18.45;52.96
11971;BME280;6045;42.682;23.294;2022-10-31T05:52:36;95224.25;;;18.28;53.64
11971;BME280;6045;42.682;23.294;2022-10-31T05:55:04;95221.34;;;18.44;52.92
11971;BME280;6045;42.682;23.294;2022-10-31T05:57:32;95220.34;;;19.63;50.15
11971;BME280;6045;42.682;23.294;2022-10-31T06:00:01;95224.53;;;20.75;46.78
11971;BME280;6045;42.682;23.294;2022-10-31T06:02:28;95225.69;;;21.56;44.67
11971;BME280;6045;42.682;23.294;2022-10-31T06:04:59;95232.41;;;22.31;42.66
11971;BME280;6045;42.682;23.294;2022-10-31T06:07:26;95230.50;;;23.27;40.26
11971;BME280;6045;42.682;23.294;2022-10-31T06:09:53;95241.09;;;23.84;39.19
11971;BME280;6045;42.682;23.294;2022-10-31T06:12:20;95235.72;;;24.16;37.71
11971;BME280;6045;42.682;23.294;2022-10-31T06:14:47;95249.97;;;24.73;36.63
11971;BME280;6045;42.682;23.294;2022-10-31T06:17:15;95240.66;;;25.28;35.73
11971;BME280;6045;42.682;23.294;2022-10-31T06:19:42;95241.03;;;25.85;34.79
11971;BME280;6045;42.682;23.294;2022-10-31T06:22:09;95244.97;;;26.36;33.50
11971;BME280;6045;42.682;23.294;2022-10-31T06:24:36;95255.31;;;26.70;33.53
11971;BME280;6045;42.682;23.294;2022-10-31T06:27:03;95253.06;;;26.72;33.33
11971;BME280;6045;42.682;23.294;2022-10-31T06:29:31;95259.38;;;27.03;32.54
11971;BME280;6045;42.682;23.294;2022-10-31T06:31:58;95264.19;;;27.37;31.87
11971;BME280;6045;42.682;23.294;2022-10-31T06:34:26;95270.56;;;27.72;31.54
11971;BME280;6045;42.682;23.294;2022-10-31T06:36:53;95273.63;;;27.79;31.70
11971;BME280;6045;42.682;23.294;2022-10-31T06:39:20;95264.41;;;27.92;31.57
11971;BME280;6045;42.682;23.294;2022-10-31T06:41:47;95273.34;;;28.23;30.37
11971;BME280;6045;42.682;23.294;2022-10-31T06:44:14;95274.25;;;28.53;30.19
11971;BME280;6045;42.682;23.294;2022-10-31T06:46:40;95268.91;;;28.74;29.13
11971;BME280;6045;42.682;23.294;2022-10-31T06:49:07;95272.88;;;28.93;29.41
11971;BME280;6045;42.682;23.294;2022-10-31T06:51:35;95280.03;;;28.94;30.13
11971;BME280;6045;42.682;23.294;2022-10-31T06:54:02;95273.91;;;28.72;30.14
11971;BME280;6045;42.682;23.294;2022-10-31T06:56:29;95272.25;;;28.96;29.66
11971;BME280;6045;42.682;23.294;2022-10-31T06:58:56;95272.63;;;29.24;28.95
11971;BME280;6045;42.682;23.294;2022-10-31T07:01:23;95274.38;;;29.29;29.51
11971;BME280;6045;42.682;23.294;2022-10-31T07:03:50;95270.25;;;29.43;28.96
11971;BME280;6045;42.682;23.294;2022-10-31T07:06:16;95278.81;;;29.50;28.90
11971;BME280;6045;42.682;23.294;2022-10-31T07:08:45;95282.50;;;29.17;29.03
11971;BME280;6045;42.682;23.294;2022-10-31T07:11:11;95276.19;;;29.25;30.22
11971;BME280;6045;42.682;23.294;2022-10-31T07:13:38;95277.38;;;29.44;29.68
11971;BME280;6045;42.682;23.294;2022-10-31T07:16:06;95285.25;;;29.54;29.76
11971;BME280;6045;42.682;23.294;2022-10-31T07:18:33;95282.22;;;29.47;30.12
11971;BME280;6045;42.682;23.294;2022-10-31T07:21:00;95272.97;;;29.72;29.12
11971;BME280;6045;42.682;23.294;2022-10-31T07:23:27;95268.06;;;29.57;29.59
11971;BME280;6045;42.682;23.294;2022-10-31T07:25:56;95267.50;;;29.43;29.48
11971;BME280;6045;42.682;23.294;2022-10-31T07:28:24;95262.22;;;28.83;30.05
11971;BME280;6045;42.682;23.294;2022-10-31T07:30:52;95257.28;;;28.68;30.20
11971;BME280;6045;42.682;23.294;2022-10-31T07:33:19;95265.41;;;28.13;30.30
11971;BME280;6045;42.682;23.294;2022-10-31T07:35:46;95263.44;;;27.71;31.11
11971;BME280;6045;42.682;23.294;2022-10-31T07:38:13;95261.25;;;27.34;31.66
11971;BME280;6045;42.682;23.294;2022-10-31T07:40:41;95258.16;;;27.27;32.58
11971;BME280;6045;42.682;23.294;2022-10-31T07:43:11;95257.19;;;27.23;32.80
11971;BME280;6045;42.682;23.294;2022-10-31T07:45:38;95258.41;;;27.56;31.94
11971;BME280;6045;42.682;23.294;2022-10-31T07:48:05;95253.75;;;27.91;31.81
11971;BME280;6045;42.682;23.294;2022-10-31T07:50:32;95255.69;;;28.24;31.92
11971;BME280;6045;42.682;23.294;2022-10-31T07:53:00;95255.16;;;28.65;30.86
11971;BME280;6045;42.682;23.294;2022-10-31T07:55:27;95260.69;;;28.48;31.23
11971;BME280;6045;42.682;23.294;2022-10-31T07:57:56;95255.63;;;28.76;31.18
11971;BME280;6045;42.682;23.294;2022-10-31T08:00:25;95254.16;;;29.16;30.34
11971;BME280;6045;42.682;23.294;2022-10-31T08:02:59;95254.53;;;29.06;29.96
11971;BME280;6045;42.682;23.294;2022-10-31T08:05:26;95256.41;;;28.85;30.55
11971;BME280;6045;42.682;23.294;2022-10-31T08:07:52;95255.16;;;28.48;30.79
11971;BME280;6045;42.682;23.294;2022-10-31T08:10:19;95257.31;;;28.42;31.17
11971;BME280;6045;42.682;23.294;2022-10-31T08:12:46;95263.91;;;28.76;31.35
11971;BME280;6045;42.682;23.294;2022-10-31T08:15:13;95260.31;;;29.22;30.22
11971;BME280;6045;42.682;23.294;2022-10-31T08:17:41;95263.22;;;29.17;29.93
11971;BME280;6045;42.682;23.294;2022-10-31T08:20:09;95251.16;;;29.38;29.89
11971;BME280;6045;42.682;23.294;2022-10-31T08:22:36;95260.22;;;29.68;29.07
11971;BME280;6045;42.682;23.294;2022-10-31T08:25:03;95261.25;;;30.25;28.50
11971;BME280;6045;42.682;23.294;2022-10-31T08:27:30;95256.53;;;30.47;28.42
11971;BME280;6045;42.682;23.294;2022-10-31T08:29:56;95260.06;;;30.14;29.66
11971;BME280;6045;42.682;23.294;2022-10-31T08:32:23;95261.53;;;30.65;28.66
11971;BME280;6045;42.682;23.294;2022-10-31T08:34:51;95258.09;;;30.68;28.86
11971;BME280;6045;42.682;23.294;2022-10-31T08:37:18;95260.91;;;30.80;28.06
11971;BME280;6045;42.682;23.294;2022-10-31T08:39:45;95251.09;;;31.16;27.02
11971;BME280;6045;42.682;23.294;2022-10-31T08:42:12;95255.78;;;31.03;27.46
11971;BME280;6045;42.682;23.294;2022-10-31T08:44:39;95260.78;;;30.44;28.11
11971;BME280;6045;42.682;23.294;2022-10-31T08:47:06;95255.97;;;29.79;29.26
11971;BME280;6045;42.682;23.294;2022-10-31T08:49:33;95250.88;;;29.60;29.37
11971;BME280;6045;42.682;23.294;2022-10-31T08:52:03;95253.41;;;29.65;29.61
11971;BME280;6045;42.682;23.294;2022-10-31T08:54:30;95251.91;;;30.18;28.21
11971;BME280;6045;42.682;23.294;2022-10-31T08:56:56;95244.25;;;29.82;29.48
11971;BME280;6045;42.682;23.294;2022-10-31T08:59:23;95254.81;;;29.51;30.32
11971;BME280;6045;42.682;23.294;2022-10-31T09:01:50;95247.06;;;29.94;29.79
11971;BME280;6045;42.682;23.294;2022-10-31T09:04:17;95257.72;;;29.84;29.47
11971;BME280;6045;42.682;23.294;2022-10-31T09:06:44;95253.78;;;30.26;29.83
11971;BME280;6045;42.682;23.294;2022-10-31T09:09:12;95252.16;;;30.25;29.93
11971;BME280;6045;42.682;23.294;2022-10-31T09:11:38;95253.56;;;29.98;29.13
11971;BME280;6045;42.682;23.294;2022-10-31T09:14:05;95248.28;;;29.85;29.86
11971;BME280;6045;42.682;23.294;2022-10-31T09:16:32;95250.81;;;30.52;29.78
11971;BME280;6045;42.682;23.294;2022-10-31T09:18:59;95252.13;;;30.66;28.83
11971;BME280;6045;42.682;23.294;2022-10-31T09:21:26;95256.63;;;30.38;28.75
11971;BME280;6045;42.682;23.294;2022-10-31T09:23:52;95250.97;;;30.14;28.75
11971;BME280;6045;42.682;23.294;2022-10-31T09:26:21;95242.41;;;30.27;29.07
11971;BME280;6045;42.682;23.294;2022-10-31T09:28:47;95239.22;;;29.84;28.95
11971;BME280;6045;42.682;23.294;2022-10-31T09:31:14;95234.75;;;29.12;30.12
11971;BME280;6045;42.682;23.294;2022-10-31T09:33:41;95241.00;;;29.30;30.85
11971;BME280;6045;42.682;23.294;2022-10-31T09:36:08;95238.59;;;30.40;29.91
11971;BME280;6045;42.682;23.294;2022-10-31T09:38:35;95239.31;;;30.50;28.82
11971;BME280;6045;42.682;23.294;2022-10-31T09:41:07;95241.97;;;31.03;28.06
11971;BME280;6045;42.682;23.294;2022-10-31T09:43:50;95241.66;;;31.65;27.24
11971;BME280;6045;42.682;23.294;2022-10-31T09:46:29;95237.47;;;30.98;27.57
11971;BME280;6045;42.682;23.294;2022-10-31T09:49:22;95228.13;;;30.46;28.55
11971;BME280;6045;42.682;23.294;2022-10-31T09:51:55;95228.34;;;30.41;28.36
11971;BME280;6045;42.682;23.294;2022-10-31T09:54:28;95231.59;;;30.55;28.16
11971;BME280;6045;42.682;23.294;2022-10-31T09:56:57;95228.28;;;31.31;27.72
11971;BME280;6045;42.682;23.294;2022-10-31T09:59:29;95233.50;;;32.08;27.28
11971;BME280;6045;42.682;23.294;2022-10-31T10:01:59;95237.19;;;32.52;26.64
11971;BME280;6045;42.682;23.294;2022-10-31T10:04:33;95229.56;;;33.39;25.02
11971;BME280;6045;42.682;23.294;2022-10-31T10:07:04;95226.34;;;34.03;23.59
11971;BME280;6045;42.682;23.294;2022-10-31T10:09:33;95218.81;;;33.69;24.39
11971;BME280;6045;42.682;23.294;2022-10-31T10:12:09;95214.88;;;33.70;23.52
11971;BME280;6045;42.682;23.294;2022-10-31T10:14:51;95213.38;;;33.92;23.61
11971;BME280;6045;42.682;23.294;2022-10-31T10:17:30;95209.84;;;33.75;23.03
11971;BME280;6045;42.682;23.294;2022-10-31T10:20:15;95209.72;;;33.53;23.29
11971;BME280;6045;42.682;23.294;2022-10-31T10:22:48;95206.41;;;33.00;23.07
11971;BME280;6045;42.682;23.294;2022-10-31T10:25:21;95207.56;;;32.99;23.95
11971;BME280;6045;42.682;23.294;2022-10-31T10:27:56;95201.34;;;33.18;23.36
11971;BME280;6045;42.682;23.294;2022-10-31T10:30:32;95199.84;;;32.62;23.83
11971;BME280;6045;42.682;23.294;2022-10-31T10:33:04;95190.94;;;32.84;23.85
11971;BME280;6045;42.682;23.294;2022-10-31T10:35:34;95191.84;;;33.35;23.60
11971;BME280;6045;42.682;23.294;2022-10-31T10:38:08;95185.28;;;33.43;23.05
11971;BME280;6045;42.682;23.294;2022-10-31T10:40:36;95180.75;;;33.35;23.49
11971;BME280;6045;42.682;23.294;2022-10-31T10:43:19;95176.91;;;33.74;24.50
11971;BME280;6045;42.682;23.294;2022-10-31T10:45:52;95178.50;;;34.29;23.10
11971;BME280;6045;42.682;23.294;2022-10-31T10:48:43;95171.59;;;33.65;22.50
11971;BME280;6045;42.682;23.294;2022-10-31T10:51:20;95169.56;;;33.82;22.74
11971;BME280;6045;42.682;23.294;2022-10-31T10:53:59;95173.66;;;34.45;23.44
11971;BME280;6045;42.682;23.294;2022-10-31T10:56:45;95168.34;;;34.78;21.90
11971;BME280;6045;42.682;23.294;2022-10-31T10:59:18;95160.63;;;34.07;22.94
11971;BME280;6045;42.682;23.294;2022-10-31T11:01:48;95171.03;;;34.33;23.22
11971;BME280;6045;42.682;23.294;2022-10-31T11:04:26;95172.19;;;34.93;22.28
11971;BME280;6045;42.682;23.294;2022-10-31T11:07:00;95168.41;;;35.80;23.62
11971;BME280;6045;42.682;23.294;2022-10-31T11:09:27;95164.66;;;36.58;20.66
11971;BME280;6045;42.682;23.294;2022-10-31T11:11:55;95169.00;;;36.92;20.77
11971;BME280;6045;42.682;23.294;2022-10-31T11:14:23;95159.31;;;36.79;20.39
11971;BME280;6045;42.682;23.294;2022-10-31T11:16:55;95155.75;;;36.45;20.39
11971;BME280;6045;42.682;23.294;2022-10-31T11:19:25;95154.81;;;35.75;21.11
11971;BME280;6045;42.682;23.294;2022-10-31T11:21:53;95152.09;;;34.80;21.57
11971;BME280;6045;42.682;23.294;2022-10-31T11:24:22;95150.25;;;34.46;23.57
11971;BME280;6045;42.682;23.294;2022-10-31T11:26:50;95149.56;;;34.30;22.74
11971;BME280;6045;42.682;23.294;2022-10-31T11:29:22;95144.84;;;34.53;22.02
11971;BME280;6045;42.682;23.294;2022-10-31T11:31:53;95144.44;;;33.94;23.40
11971;BME280;6045;42.682;23.294;2022-10-31T11:34:28;95137.13;;;33.66;23.02
11971;BME280;6045;42.682;23.294;2022-10-31T11:37:01;95135.81;;;34.18;22.97
11971;BME280;6045;42.682;23.294;2022-10-31T11:39:29;95137.97;;;34.66;22.60
11971;BME280;6045;42.682;23.294;2022-10-31T11:42:00;95128.78;;;35.60;21.76
11971;BME280;6045;42.682;23.294;2022-10-31T11:44:29;95130.44;;;35.94;21.10
11971;BME280;6045;42.682;23.294;2022-10-31T11:47:01;95133.56;;;35.89;21.11
11971;BME280;6045;42.682;23.294;2022-10-31T11:49:31;95130.06;;;35.40;20.86
11971;BME280;6045;42.682;23.294;2022-10-31T11:52:00;95130.69;;;35.30;21.11
11971;BME280;6045;42.682;23.294;2022-10-31T11:54:32;95122.88;;;35.13;21.21
11971;BME280;6045;42.682;23.294;2022-10-31T11:56:59;95122.41;;;34.84;22.30
11971;BME280;6045;42.682;23.294;2022-10-31T11:59:28;95116.91;;;35.11;21.45
11971;BME280;6045;42.682;23.294;2022-10-31T12:01:56;95116.59;;;35.16;21.35
11971;BME280;6045;42.682;23.294;2022-10-31T12:04:31;95111.28;;;35.59;21.95
11971;BME280;6045;42.682;23.294;2022-10-31T12:07:00;95110.47;;;36.18;20.17
11971;BME280;6045;42.682;23.294;2022-10-31T12:09:29;95119.97;;;36.47;19.79
11971;BME280;6045;42.682;23.294;2022-10-31T12:12:16;95108.88;;;35.88;20.40
11971;BME280;6045;42.682;23.294;2022-10-31T12:14:55;95109.50;;;35.22;20.91
11971;BME280;6045;42.682;23.294;2022-10-31T12:17:34;95102.00;;;34.31;22.34
11971;BME280;6045;42.682;23.294;2022-10-31T12:20:10;95106.75;;;33.93;21.88
11971;BME280;6045;42.682;23.294;2022-10-31T12:22:47;95104.72;;;34.51;22.42
11971;BME280;6045;42.682;23.294;2022-10-31T12:25:26;95103.16;;;34.30;21.58
11971;BME280;6045;42.682;23.294;2022-10-31T12:28:10;95110.31;;;33.55;24.00
11971;BME280;6045;42.682;23.294;2022-10-31T12:30:51;95104.22;;;33.84;22.22
11971;BME280;6045;42.682;23.294;2022-10-31T12:33:34;95102.84;;;34.55;22.62
11971;BME280;6045;42.682;23.294;2022-10-31T12:36:24;95097.22;;;35.23;22.30
11971;BME280;6045;42.682;23.294;2022-10-31T12:39:09;95105.03;;;35.40;21.44
11971;BME280;6045;42.682;23.294;2022-10-31T12:41:46;95092.38;;;35.46;21.14
11971;BME280;6045;42.682;23.294;2022-10-31T12:44:32;95101.66;;;35.53;20.66
11971;BME280;6045;42.682;23.294;2022-10-31T12:47:12;95099.69;;;34.37;21.46
11971;BME280;6045;42.682;23.294;2022-10-31T12:49:52;95103.50;;;33.52;23.13
11971;BME280;6045;42.682;23.294;2022-10-31T12:52:37;95098.09;;;33.40;23.20
11971;BME280;6045;42.682;23.294;2022-10-31T12:55:18;95094.13;;;34.14;23.02
11971;BME280;6045;42.682;23.294;2022-10-31T12:57:50;95093.00;;;34.38;22.12
11971;BME280;6045;42.682;23.294;2022-10-31T13:00:19;95098.47;;;34.76;21.86
11971;BME280;6045;42.682;23.294;2022-10-31T13:02:50;95100.75;;;34.71;21.11
11971;BME280;6045;42.682;23.294;2022-10-31T13:05:23;95097.75;;;35.05;21.34
11971;BME280;6045;42.682;23.294;2022-10-31T13:07:56;95101.56;;;35.50;20.86
11971;BME280;6045;42.682;23.294;2022-10-31T13:10:27;95094.78;;;35.47;21.40
11971;BME280;6045;42.682;23.294;2022-10-31T13:13:02;95101.84;;;35.38;21.07
11971;BME280;6045;42.682;23.294;2022-10-31T13:15:34;95098.16;;;35.56;21.43
11971;BME280;6045;42.682;23.294;2022-10-31T13:18:11;95097.16;;;35.19;21.13
11971;BME280;6045;42.682;23.294;2022-10-31T13:20:43;95094.78;;;34.95;22.91
11971;BME280;6045;42.682;23.294;2022-10-31T13:23:16;95090.06;;;35.22;21.15
11971;BME280;6045;42.682;23.294;2022-10-31T13:25:49;95095.69;;;35.25;20.58
11971;BME280;6045;42.682;23.294;2022-10-31T13:28:25;95089.97;;;34.92;20.92
11971;BME280;6045;42.682;23.294;2022-10-31T13:30:55;95087.84;;;34.59;22.16
11971;BME280;6045;42.682;23.294;2022-10-31T13:33:26;95083.97;;;33.84;22.10